sensor_id;sensor_type;location;lat;lon;timestamp;P1;durP1;ratioP1;P2;durP2;ratioP2
85190;SDS011;75560;0.000;0.000;2024-03-08T00:02:15;4.93;;;3.08;;
85190;SDS011;75560;0.000;0.000;2024-03-08T00:04:41;3.35;;;2.80;;
85190;SDS011;75560;0.000;0.000;2024-03-08T00:07:07;4.07;;;2.88;;
85190;SDS011;75560;0.000;0.000;2024-03-08T00:09:32;3.85;;;2.92;;
85190;SDS011;75560;0.000;0.000;2024-03-08T00:11:58;4.50;;;3.08;;
85190;SDS011;75560;0.000;0.000;2024-03-08T00:14:24;3.22;;;2.80;;
85190;SDS011;75560;0.000;0.000;2024-03-08T00:16:50;3.90;;;3.00;;
85190;SDS011;75560;0.000;0.000;2024-03-08T00:19:17;3.55;;;2.90;;
85190;SDS011;75560;0.000;0.000;2024-03-08T00:21:43;4.68;;;2.78;;
85190;SDS011;75560;0.000;0.000;2024-03-08T00:24:08;4.05;;;3.17;;
85190;SDS011;75560;0.000;0.000;2024-03-08T00:26:34;4.47;;;2.80;;
85190;SDS011;75560;0.000;0.000;2024-03-08T00:29:00;4.85;;;2.95;;
85190;SDS011;75560;0.000;0.000;2024-03-08T00:31:25;4.43;;;2.60;;
85190;SDS011;75560;0.000;0.000;2024-03-08T00:33:51;4.47;;;2.80;;
85190;SDS011;75560;0.000;0.000;2024-03-08T00:36:17;3.25;;;2.70;;
85190;SDS011;75560;0.000;0.000;2024-03-08T00:38:43;3.88;;;2.80;;
85190;SDS011;75560;0.000;0.000;2024-03-08T00:41:08;5.30;;;3.38;;
85190;SDS011;75560;0.000;0.000;2024-03-08T00:43:34;4.53;;;2.85;;
85190;SDS011;75560;0.000;0.000;2024-03-08T00:45:59;4.28;;;2.90;;
85190;SDS011;75560;0.000;0.000;2024-03-08T00:48:26;3.67;;;2.75;;
85190;SDS011;75560;0.000;0.000;2024-03-08T00:50:51;3.55;;;2.90;;
85190;SDS011;75560;0.000;0.000;2024-03-08T00:53:17;3.90;;;2.95;;
85190;SDS011;75560;0.000;0.000;2024-03-08T00:55:43;5.95;;;2.60;;
85190;SDS011;75560;0.000;0.000;2024-03-08T00:58:11;3.60;;;2.78;;
85190;SDS011;75560;0.000;0.000;2024-03-08T01:00:37;5.72;;;2.72;;
85190;SDS011;75560;0.000;0.000;2024-03-08T01:03:04;4.93;;;2.80;;
85190;SDS011;75560;0.000;0.000;2024-03-08T01:05:30;3.55;;;2.78;;
85190;SDS011;75560;0.000;0.000;2024-03-08T01:07:55;4.30;;;2.92;;
85190;SDS011;75560;0.000;0.000;2024-03-08T01:10:21;4.10;;;2.90;;
85190;SDS011;75560;0.000;0.000;2024-03-08T01:12:46;3.90;;;2.85;;
85190;SDS011;75560;0.000;0.000;2024-03-08T01:15:12;5.22;;;3.47;;
85190;SDS011;75560;0.000;0.000;2024-03-08T01:17:37;4.80;;;3.03;;
85190;SDS011;75560;0.000;0.000;2024-03-08T01:20:03;3.97;;;2.60;;
85190;SDS011;75560;0.000;0.000;2024-03-08T01:22:30;4.78;;;2.60;;
85190;SDS011;75560;0.000;0.000;2024-03-08T01:24:56;4.85;;;2.60;;
85190;SDS011;75560;0.000;0.000;2024-03-08T01:27:22;3.92;;;2.70;;
85190;SDS011;75560;0.000;0.000;2024-03-08T01:29:47;4.80;;;2.97;;
85190;SDS011;75560;0.000;0.000;2024-03-08T01:32:13;4.78;;;3.28;;
85190;SDS011;75560;0.000;0.000;2024-03-08T01:34:39;5.22;;;2.70;;
85190;SDS011;75560;0.000;0.000;2024-03-08T01:37:05;4.22;;;2.63;;
85190;SDS011;75560;0.000;0.000;2024-03-08T01:39:31;4.05;;;2.60;;
85190;SDS011;75560;0.000;0.000;2024-03-08T01:41:57;3.50;;;2.63;;
85190;SDS011;75560;0.000;0.000;2024-03-08T01:44:23;5.05;;;2.85;;
85190;SDS011;75560;0.000;0.000;2024-03-08T01:46:49;3.15;;;2.65;;
85190;SDS011;75560;0.000;0.000;2024-03-08T01:49:17;4.55;;;2.75;;
85190;SDS011;75560;0.000;0.000;2024-03-08T01:51:45;4.47;;;2.60;;
85190;SDS011;75560;0.000;0.000;2024-03-08T01:54:11;4.85;;;2.75;;
85190;SDS011;75560;0.000;0.000;2024-03-08T01:56:38;3.60;;;2.65;;
85190;SDS011;75560;0.000;0.000;2024-03-08T01:59:04;3.03;;;2.60;;
85190;SDS011;75560;0.000;0.000;2024-03-08T02:01:32;4.53;;;2.85;;
85190;SDS011;75560;0.000;0.000;2024-03-08T02:03:59;3.50;;;2.78;;
85190;SDS011;75560;0.000;0.000;2024-03-08T02:06:25;6.28;;;3.50;;
85190;SDS011;75560;0.000;0.000;2024-03-08T02:08:50;3.38;;;2.88;;
85190;SDS011;75560;0.000;0.000;2024-03-08T02:11:18;4.68;;;3.20;;
85190;SDS011;75560;0.000;0.000;2024-03-08T02:13:45;3.70;;;2.40;;
85190;SDS011;75560;0.000;0.000;2024-03-08T02:16:11;4.07;;;2.60;;
85190;SDS011;75560;0.000;0.000;2024-03-08T02:18:36;4.03;;;2.53;;
85190;SDS011;75560;0.000;0.000;2024-03-08T02:21:04;3.28;;;2.58;;
85190;SDS011;75560;0.000;0.000;2024-03-08T02:23:33;4.25;;;2.55;;
85190;SDS011;75560;0.000;0.000;2024-03-08T02:25:59;3.53;;;2.60;;
85190;SDS011;75560;0.000;0.000;2024-03-08T02:28:25;4.10;;;2.80;;
85190;SDS011;75560;0.000;0.000;2024-03-08T02:30:51;4.25;;;2.67;;
85190;SDS011;75560;0.000;0.000;2024-03-08T02:33:20;2.95;;;2.58;;
85190;SDS011;75560;0.000;0.000;2024-03-08T02:35:47;4.07;;;2.83;;
85190;SDS011;75560;0.000;0.000;2024-03-08T02:38:17;4.65;;;2.80;;
85190;SDS011;75560;0.000;0.000;2024-03-08T02:40:45;4.10;;;2.75;;
85190;SDS011;75560;0.000;0.000;2024-03-08T02:43:12;4.15;;;2.50;;
85190;SDS011;75560;0.000;0.000;2024-03-08T02:45:39;3.85;;;2.75;;
85190;SDS011;75560;0.000;0.000;2024-03-08T02:48:06;3.38;;;2.60;;
85190;SDS011;75560;0.000;0.000;2024-03-08T02:50:32;3.33;;;2.35;;
85190;SDS011;75560;0.000;0.000;2024-03-08T02:52:59;3.63;;;2.70;;
85190;SDS011;75560;0.000;0.000;2024-03-08T02:55:25;4.65;;;2.80;;
85190;SDS011;75560;0.000;0.000;2024-03-08T02:57:52;3.95;;;2.60;;
85190;SDS011;75560;0.000;0.000;2024-03-08T03:00:19;3.65;;;2.72;;
85190;SDS011;75560;0.000;0.000;2024-03-08T03:02:46;4.03;;;2.80;;
85190;SDS011;75560;0.000;0.000;2024-03-08T03:05:12;3.50;;;2.60;;
85190;SDS011;75560;0.000;0.000;2024-03-08T03:07:38;3.97;;;2.55;;
85190;SDS011;75560;0.000;0.000;2024-03-08T03:10:03;3.38;;;2.53;;
85190;SDS011;75560;0.000;0.000;2024-03-08T03:12:30;3.85;;;2.58;;
85190;SDS011;75560;0.000;0.000;2024-03-08T03:14:59;4.47;;;2.80;;
85190;SDS011;75560;0.000;0.000;2024-03-08T03:17:25;3.70;;;2.60;;
85190;SDS011;75560;0.000;0.000;2024-03-08T03:19:51;3.67;;;2.72;;
85190;SDS011;75560;0.000;0.000;2024-03-08T03:22:17;4.05;;;2.70;;
85190;SDS011;75560;0.000;0.000;2024-03-08T03:24:44;4.38;;;2.58;;
85190;SDS011;75560;0.000;0.000;2024-03-08T03:27:11;3.83;;;2.50;;
85190;SDS011;75560;0.000;0.000;2024-03-08T03:29:38;4.78;;;2.70;;
85190;SDS011;75560;0.000;0.000;2024-03-08T03:32:04;2.65;;;2.25;;
85190;SDS011;75560;0.000;0.000;2024-03-08T03:34:32;2.95;;;2.35;;
85190;SDS011;75560;0.000;0.000;2024-03-08T03:37:01;4.22;;;2.80;;
85190;SDS011;75560;0.000;0.000;2024-03-08T03:39:27;4.20;;;2.38;;
85190;SDS011;75560;0.000;0.000;2024-03-08T03:41:56;3.97;;;2.83;;
85190;SDS011;75560;0.000;0.000;2024-03-08T03:44:22;2.85;;;2.53;;
85190;SDS011;75560;0.000;0.000;2024-03-08T03:46:48;3.45;;;2.60;;
85190;SDS011;75560;0.000;0.000;2024-03-08T03:49:15;4.50;;;3.15;;
85190;SDS011;75560;0.000;0.000;2024-03-08T03:51:42;3.40;;;2.38;;
85190;SDS011;75560;0.000;0.000;2024-03-08T03:54:07;3.85;;;2.40;;
85190;SDS011;75560;0.000;0.000;2024-03-08T03:56:33;4.38;;;2.47;;
85190;SDS011;75560;0.000;0.000;2024-03-08T03:58:59;3.58;;;2.58;;
85190;SDS011;75560;0.000;0.000;2024-03-08T04:01:24;4.13;;;2.75;;
85190;SDS011;75560;0.000;0.000;2024-03-08T04:03:50;3.33;;;2.50;;
85190;SDS011;75560;0.000;0.000;2024-03-08T04:06:15;3.47;;;2.42;;
85190;SDS011;75560;0.000;0.000;2024-03-08T04:08:41;4.45;;;2.80;;
85190;SDS011;75560;0.000;0.000;2024-03-08T04:11:07;3.45;;;2.60;;
85190;SDS011;75560;0.000;0.000;2024-03-08T04:13:33;3.60;;;2.60;;
85190;SDS011;75560;0.000;0.000;2024-03-08T04:15:59;3.05;;;2.45;;
85190;SDS011;75560;0.000;0.000;2024-03-08T04:18:25;4.22;;;2.60;;
85190;SDS011;75560;0.000;0.000;2024-03-08T04:20:51;3.63;;;2.53;;
85190;SDS011;75560;0.000;0.000;2024-03-08T04:23:16;3.40;;;2.30;;
85190;SDS011;75560;0.000;0.000;2024-03-08T04:25:43;3.58;;;2.28;;
85190;SDS011;75560;0.000;0.000;2024-03-08T04:28:09;3.45;;;2.40;;
85190;SDS011;75560;0.000;0.000;2024-03-08T04:30:37;3.10;;;2.50;;
85190;SDS011;75560;0.000;0.000;2024-03-08T04:33:04;3.28;;;2.55;;
85190;SDS011;75560;0.000;0.000;2024-03-08T04:35:31;4.00;;;2.70;;
85190;SDS011;75560;0.000;0.000;2024-03-08T04:37:57;3.30;;;2.33;;
85190;SDS011;75560;0.000;0.000;2024-03-08T04:40:23;4.30;;;2.75;;
85190;SDS011;75560;0.000;0.000;2024-03-08T04:42:49;3.38;;;2.63;;
85190;SDS011;75560;0.000;0.000;2024-03-08T04:45:15;3.45;;;2.67;;
85190;SDS011;75560;0.000;0.000;2024-03-08T04:47:41;3.30;;;2.50;;
85190;SDS011;75560;0.000;0.000;2024-03-08T04:50:07;4.15;;;2.83;;
85190;SDS011;75560;0.000;0.000;2024-03-08T04:52:34;3.97;;;2.50;;
85190;SDS011;75560;0.000;0.000;2024-03-08T04:55:00;3.58;;;2.58;;
85190;SDS011;75560;0.000;0.000;2024-03-08T04:57:27;3.58;;;2.40;;
85190;SDS011;75560;0.000;0.000;2024-03-08T04:59:53;4.45;;;2.60;;
85190;SDS011;75560;0.000;0.000;2024-03-08T05:02:18;3.63;;;2.50;;
85190;SDS011;75560;0.000;0.000;2024-03-08T05:04:44;3.08;;;2.40;;
85190;SDS011;75560;0.000;0.000;2024-03-08T05:07:09;4.15;;;2.63;;
85190;SDS011;75560;0.000;0.000;2024-03-08T05:09:35;4.55;;;2.88;;
85190;SDS011;75560;0.000;0.000;2024-03-08T05:12:01;5.28;;;2.22;;
85190;SDS011;75560;0.000;0.000;2024-03-08T05:14:26;5.68;;;2.60;;
85190;SDS011;75560;0.000;0.000;2024-03-08T05:16:52;6.97;;;2.88;;
85190;SDS011;75560;0.000;0.000;2024-03-08T05:19:18;4.28;;;2.90;;
85190;SDS011;75560;0.000;0.000;2024-03-08T05:21:48;8.48;;;2.80;;
85190;SDS011;75560;0.000;0.000;2024-03-08T05:24:15;8.45;;;3.63;;
85190;SDS011;75560;0.000;0.000;2024-03-08T05:26:41;6.13;;;2.72;;
85190;SDS011;75560;0.000;0.000;2024-03-08T05:29:07;8.10;;;3.15;;
85190;SDS011;75560;0.000;0.000;2024-03-08T05:31:47;6.60;;;3.08;;
85190;SDS011;75560;0.000;0.000;2024-03-08T05:34:14;7.95;;;2.92;;
85190;SDS011;75560;0.000;0.000;2024-03-08T05:36:41;7.13;;;2.90;;
85190;SDS011;75560;0.000;0.000;2024-03-08T05:39:09;7.22;;;3.00;;
85190;SDS011;75560;0.000;0.000;2024-03-08T05:41:36;5.47;;;2.88;;
85190;SDS011;75560;0.000;0.000;2024-03-08T05:44:03;7.25;;;2.97;;
85190;SDS011;75560;0.000;0.000;2024-03-08T05:46:28;6.15;;;2.80;;
85190;SDS011;75560;0.000;0.000;2024-03-08T05:48:54;6.75;;;2.95;;
85190;SDS011;75560;0.000;0.000;2024-03-08T05:51:19;8.75;;;3.10;;
85190;SDS011;75560;0.000;0.000;2024-03-08T05:53:46;6.82;;;2.90;;
85190;SDS011;75560;0.000;0.000;2024-03-08T05:56:12;7.93;;;3.28;;
85190;SDS011;75560;0.000;0.000;2024-03-08T05:58:37;8.35;;;3.20;;
85190;SDS011;75560;0.000;0.000;2024-03-08T06:01:03;11.00;;;5.03;;
85190;SDS011;75560;0.000;0.000;2024-03-08T06:03:32;11.20;;;6.55;;
85190;SDS011;75560;0.000;0.000;2024-03-08T06:05:59;13.48;;;6.50;;
85190;SDS011;75560;0.000;0.000;2024-03-08T06:08:24;14.70;;;7.43;;
85190;SDS011;75560;0.000;0.000;2024-03-08T06:10:54;15.98;;;6.82;;
85190;SDS011;75560;0.000;0.000;2024-03-08T06:13:21;13.93;;;6.60;;
85190;SDS011;75560;0.000;0.000;2024-03-08T06:15:46;13.23;;;6.13;;
85190;SDS011;75560;0.000;0.000;2024-03-08T06:18:12;15.13;;;6.45;;
85190;SDS011;75560;0.000;0.000;2024-03-08T06:20:37;13.63;;;5.80;;
85190;SDS011;75560;0.000;0.000;2024-03-08T06:23:03;12.90;;;6.10;;
85190;SDS011;75560;0.000;0.000;2024-03-08T06:25:29;12.75;;;5.85;;
85190;SDS011;75560;0.000;0.000;2024-03-08T06:27:54;12.45;;;5.25;;
85190;SDS011;75560;0.000;0.000;2024-03-08T06:30:21;12.88;;;5.40;;
85190;SDS011;75560;0.000;0.000;2024-03-08T06:32:47;14.35;;;5.15;;
85190;SDS011;75560;0.000;0.000;2024-03-08T06:35:12;14.82;;;5.15;;
85190;SDS011;75560;0.000;0.000;2024-03-08T06:37:40;10.63;;;5.15;;
85190;SDS011;75560;0.000;0.000;2024-03-08T06:40:09;11.20;;;4.85;;
85190;SDS011;75560;0.000;0.000;2024-03-08T06:42:38;12.95;;;4.88;;
85190;SDS011;75560;0.000;0.000;2024-03-08T06:45:04;9.65;;;4.18;;
85190;SDS011;75560;0.000;0.000;2024-03-08T06:47:31;7.57;;;4.10;;
85190;SDS011;75560;0.000;0.000;2024-03-08T06:49:58;7.03;;;4.28;;
85190;SDS011;75560;0.000;0.000;2024-03-08T06:52:23;9.95;;;4.20;;
85190;SDS011;75560;0.000;0.000;2024-03-08T06:54:49;8.02;;;4.32;;
85190;SDS011;75560;0.000;0.000;2024-03-08T06:57:17;11.20;;;4.30;;
85190;SDS011;75560;0.000;0.000;2024-03-08T06:59:43;7.43;;;4.00;;
85190;SDS011;75560;0.000;0.000;2024-03-08T07:02:09;9.60;;;4.20;;
85190;SDS011;75560;0.000;0.000;2024-03-08T07:04:35;8.68;;;3.88;;
85190;SDS011;75560;0.000;0.000;2024-03-08T07:07:06;8.10;;;4.00;;
85190;SDS011;75560;0.000;0.000;2024-03-08T07:09:35;7.28;;;3.67;;
85190;SDS011;75560;0.000;0.000;2024-03-08T07:12:01;6.22;;;3.50;;
85190;SDS011;75560;0.000;0.000;2024-03-08T07:14:27;7.68;;;3.65;;
85190;SDS011;75560;0.000;0.000;2024-03-08T07:16:53;8.48;;;3.42;;
85190;SDS011;75560;0.000;0.000;2024-03-08T07:19:18;6.70;;;3.53;;
85190;SDS011;75560;0.000;0.000;2024-03-08T07:21:44;6.50;;;3.42;;
85190;SDS011;75560;0.000;0.000;2024-03-08T07:24:10;5.28;;;3.30;;
85190;SDS011;75560;0.000;0.000;2024-03-08T07:26:44;6.80;;;3.70;;
85190;SDS011;75560;0.000;0.000;2024-03-08T07:29:14;6.78;;;3.60;;
85190;SDS011;75560;0.000;0.000;2024-03-08T07:31:40;6.38;;;3.60;;
85190;SDS011;75560;0.000;0.000;2024-03-08T07:34:06;7.32;;;3.70;;
85190;SDS011;75560;0.000;0.000;2024-03-08T07:36:32;6.18;;;3.30;;
85190;SDS011;75560;0.000;0.000;2024-03-08T07:38:58;8.77;;;3.70;;
85190;SDS011;75560;0.000;0.000;2024-03-08T07:41:24;7.25;;;3.92;;
85190;SDS011;75560;0.000;0.000;2024-03-08T07:43:49;5.63;;;2.97;;
85190;SDS011;75560;0.000;0.000;2024-03-08T07:46:15;4.82;;;2.85;;
85190;SDS011;75560;0.000;0.000;2024-03-08T07:48:43;8.07;;;3.08;;
85190;SDS011;75560;0.000;0.000;2024-03-08T07:51:09;7.78;;;3.78;;
85190;SDS011;75560;0.000;0.000;2024-03-08T07:53:37;7.25;;;3.50;;
85190;SDS011;75560;0.000;0.000;2024-03-08T07:56:03;5.03;;;3.22;;
85190;SDS011;75560;0.000;0.000;2024-03-08T07:58:30;4.57;;;3.13;;
85190;SDS011;75560;0.000;0.000;2024-03-08T08:00:55;7.07;;;3.47;;
85190;SDS011;75560;0.000;0.000;2024-03-08T08:03:21;6.95;;;3.20;;
85190;SDS011;75560;0.000;0.000;2024-03-08T08:05:47;8.38;;;3.47;;
85190;SDS011;75560;0.000;0.000;2024-03-08T08:08:14;6.07;;;3.25;;
85190;SDS011;75560;0.000;0.000;2024-03-08T08:10:40;5.15;;;3.30;;
85190;SDS011;75560;0.000;0.000;2024-03-08T08:13:05;4.97;;;3.22;;
85190;SDS011;75560;0.000;0.000;2024-03-08T08:15:31;5.97;;;3.50;;
85190;SDS011;75560;0.000;0.000;2024-03-08T08:17:59;8.77;;;3.45;;
85190;SDS011;75560;0.000;0.000;2024-03-08T08:20:25;5.88;;;3.35;;
85190;SDS011;75560;0.000;0.000;2024-03-08T08:22:51;5.47;;;3.15;;
85190;SDS011;75560;0.000;0.000;2024-03-08T08:25:16;7.20;;;3.45;;
85190;SDS011;75560;0.000;0.000;2024-03-08T08:27:45;6.43;;;3.72;;
85190;SDS011;75560;0.000;0.000;2024-03-08T08:30:11;5.85;;;3.00;;
85190;SDS011;75560;0.000;0.000;2024-03-08T08:32:38;4.78;;;3.65;;
85190;SDS011;75560;0.000;0.000;2024-03-08T08:35:04;5.15;;;3.15;;
85190;SDS011;75560;0.000;0.000;2024-03-08T08:37:40;5.15;;;3.60;;
85190;SDS011;75560;0.000;0.000;2024-03-08T08:40:06;6.68;;;4.70;;
85190;SDS011;75560;0.000;0.000;2024-03-08T08:42:39;5.18;;;2.90;;
85190;SDS011;75560;0.000;0.000;2024-03-08T08:45:05;5.53;;;3.63;;
85190;SDS011;75560;0.000;0.000;2024-03-08T08:47:35;7.93;;;5.50;;
85190;SDS011;75560;0.000;0.000;2024-03-08T08:50:01;8.43;;;7.72;;
85190;SDS011;75560;0.000;0.000;2024-03-08T08:52:29;6.05;;;3.80;;
85190;SDS011;75560;0.000;0.000;2024-03-08T08:54:54;6.45;;;5.95;;
85190;SDS011;75560;0.000;0.000;2024-03-08T08:57:20;7.57;;;6.97;;
85190;SDS011;75560;0.000;0.000;2024-03-08T08:59:45;5.15;;;3.60;;
85190;SDS011;75560;0.000;0.000;2024-03-08T09:02:11;5.75;;;3.22;;
85190;SDS011;75560;0.000;0.000;2024-03-08T09:04:38;6.80;;;3.95;;
85190;SDS011;75560;0.000;0.000;2024-03-08T09:07:03;12.50;;;11.57;;
85190;SDS011;75560;0.000;0.000;2024-03-08T09:09:31;5.85;;;4.68;;
85190;SDS011;75560;0.000;0.000;2024-03-08T09:11:57;5.97;;;3.65;;
85190;SDS011;75560;0.000;0.000;2024-03-08T09:14:23;6.70;;;3.80;;
85190;SDS011;75560;0.000;0.000;2024-03-08T09:16:51;3.83;;;3.08;;
85190;SDS011;75560;0.000;0.000;2024-03-08T09:19:16;7.78;;;7.03;;
85190;SDS011;75560;0.000;0.000;2024-03-08T09:21:44;6.53;;;5.85;;
85190;SDS011;75560;0.000;0.000;2024-03-08T09:24:10;4.72;;;3.65;;
85190;SDS011;75560;0.000;0.000;2024-03-08T09:26:35;4.05;;;3.10;;
85190;SDS011;75560;0.000;0.000;2024-03-08T09:29:02;5.28;;;2.90;;
85190;SDS011;75560;0.000;0.000;2024-03-08T09:31:27;5.28;;;2.75;;
85190;SDS011;75560;0.000;0.000;2024-03-08T09:33:53;5.13;;;2.92;;
85190;SDS011;75560;0.000;0.000;2024-03-08T09:36:19;4.68;;;2.80;;
85190;SDS011;75560;0.000;0.000;2024-03-08T09:38:45;4.32;;;2.92;;
85190;SDS011;75560;0.000;0.000;2024-03-08T09:41:10;3.53;;;2.63;;
85190;SDS011;75560;0.000;0.000;2024-03-08T09:43:36;3.92;;;3.10;;
85190;SDS011;75560;0.000;0.000;2024-03-08T09:46:02;3.95;;;3.00;;
85190;SDS011;75560;0.000;0.000;2024-03-08T09:48:29;3.92;;;2.90;;
85190;SDS011;75560;0.000;0.000;2024-03-08T09:50:54;3.95;;;2.70;;
85190;SDS011;75560;0.000;0.000;2024-03-08T09:53:21;5.10;;;2.70;;
85190;SDS011;75560;0.000;0.000;2024-03-08T09:55:47;4.30;;;2.85;;
85190;SDS011;75560;0.000;0.000;2024-03-08T09:58:15;5.45;;;2.90;;
85190;SDS011;75560;0.000;0.000;2024-03-08T10:00:46;4.50;;;2.70;;
85190;SDS011;75560;0.000;0.000;2024-03-08T10:03:12;3.20;;;2.60;;
85190;SDS011;75560;0.000;0.000;2024-03-08T10:05:39;5.53;;;2.70;;
85190;SDS011;75560;0.000;0.000;2024-03-08T10:08:06;5.63;;;2.50;;
85190;SDS011;75560;0.000;0.000;2024-03-08T10:10:35;4.22;;;2.83;;
85190;SDS011;75560;0.000;0.000;2024-03-08T10:13:08;3.90;;;2.70;;
85190;SDS011;75560;0.000;0.000;2024-03-08T10:15:37;5.53;;;3.13;;
85190;SDS011;75560;0.000;0.000;2024-03-08T10:18:05;4.57;;;2.80;;
85190;SDS011;75560;0.000;0.000;2024-03-08T10:20:31;3.67;;;2.70;;
85190;SDS011;75560;0.000;0.000;2024-03-08T10:23:00;4.32;;;2.67;;
85190;SDS011;75560;0.000;0.000;2024-03-08T10:25:28;3.20;;;2.60;;
85190;SDS011;75560;0.000;0.000;2024-03-08T10:27:57;6.35;;;3.20;;
85190;SDS011;75560;0.000;0.000;2024-03-08T10:30:22;4.35;;;3.20;;
85190;SDS011;75560;0.000;0.000;2024-03-08T10:32:48;3.83;;;2.60;;
85190;SDS011;75560;0.000;0.000;2024-03-08T10:35:14;3.80;;;2.97;;
85190;SDS011;75560;0.000;0.000;2024-03-08T10:37:45;4.65;;;3.10;;
85190;SDS011;75560;0.000;0.000;2024-03-08T10:40:16;4.68;;;3.00;;
85190;SDS011;75560;0.000;0.000;2024-03-08T10:42:53;4.32;;;2.60;;
85190;SDS011;75560;0.000;0.000;2024-03-08T10:45:39;3.38;;;2.70;;
85190;SDS011;75560;0.000;0.000;2024-03-08T10:48:17;5.18;;;2.72;;
85190;SDS011;75560;0.000;0.000;2024-03-08T10:50:45;4.70;;;2.60;;
85190;SDS011;75560;0.000;0.000;2024-03-08T10:53:14;5.50;;;2.55;;
85190;SDS011;75560;0.000;0.000;2024-03-08T10:55:40;5.25;;;2.65;;
85190;SDS011;75560;0.000;0.000;2024-03-08T10:58:07;5.00;;;2.85;;
85190;SDS011;75560;0.000;0.000;2024-03-08T11:00:33;5.68;;;2.88;;
85190;SDS011;75560;0.000;0.000;2024-03-08T11:02:59;3.75;;;2.60;;
85190;SDS011;75560;0.000;0.000;2024-03-08T11:08:16;5.47;;;2.90;;
85190;SDS011;75560;0.000;0.000;2024-03-08T11:13:41;4.32;;;2.38;;
85190;SDS011;75560;0.000;0.000;2024-03-08T11:16:12;4.90;;;2.80;;
85190;SDS011;75560;0.000;0.000;2024-03-08T11:18:58;6.15;;;2.72;;
85190;SDS011;75560;0.000;0.000;2024-03-08T11:21:31;3.33;;;2.60;;
85190;SDS011;75560;0.000;0.000;2024-03-08T11:24:08;6.25;;;2.80;;
85190;SDS011;75560;0.000;0.000;2024-03-08T11:26:38;3.78;;;2.60;;
85190;SDS011;75560;0.000;0.000;2024-03-08T11:32:03;3.20;;;2.53;;
85190;SDS011;75560;0.000;0.000;2024-03-08T11:34:30;4.33;;;2.90;;
85190;SDS011;75560;0.000;0.000;2024-03-08T11:36:58;4.47;;;2.90;;
85190;SDS011;75560;0.000;0.000;2024-03-08T11:39:26;3.97;;;2.42;;
85190;SDS011;75560;0.000;0.000;2024-03-08T11:41:53;4.38;;;2.83;;
85190;SDS011;75560;0.000;0.000;2024-03-08T11:44:20;4.78;;;2.85;;
85190;SDS011;75560;0.000;0.000;2024-03-08T11:46:45;4.85;;;2.60;;
85190;SDS011;75560;0.000;0.000;2024-03-08T11:49:14;3.97;;;2.80;;
85190;SDS011;75560;0.000;0.000;2024-03-08T11:51:40;4.45;;;2.58;;
85190;SDS011;75560;0.000;0.000;2024-03-08T11:54:10;3.95;;;2.45;;
85190;SDS011;75560;0.000;0.000;2024-03-08T11:56:38;3.55;;;2.50;;
85190;SDS011;75560;0.000;0.000;2024-03-08T11:59:03;5.43;;;2.53;;
85190;SDS011;75560;0.000;0.000;2024-03-08T12:01:30;5.25;;;2.33;;
85190;SDS011;75560;0.000;0.000;2024-03-08T12:03:56;3.65;;;2.40;;
85190;SDS011;75560;0.000;0.000;2024-03-08T12:06:24;4.75;;;2.55;;
85190;SDS011;75560;0.000;0.000;2024-03-08T12:08:52;4.10;;;2.63;;
85190;SDS011;75560;0.000;0.000;2024-03-08T12:11:18;3.55;;;2.55;;
85190;SDS011;75560;0.000;0.000;2024-03-08T12:13:47;3.55;;;2.40;;
85190;SDS011;75560;0.000;0.000;2024-03-08T12:16:15;3.70;;;2.40;;
85190;SDS011;75560;0.000;0.000;2024-03-08T12:18:43;3.17;;;2.63;;
85190;SDS011;75560;0.000;0.000;2024-03-08T12:21:10;4.25;;;2.83;;
85190;SDS011;75560;0.000;0.000;2024-03-08T12:23:38;3.33;;;2.55;;
85190;SDS011;75560;0.000;0.000;2024-03-08T12:26:14;3.90;;;2.90;;
85190;SDS011;75560;0.000;0.000;2024-03-08T12:28:48;5.35;;;2.63;;
85190;SDS011;75560;0.000;0.000;2024-03-08T12:31:14;3.53;;;2.72;;
85190;SDS011;75560;0.000;0.000;2024-03-08T12:33:49;3.22;;;2.70;;
85190;SDS011;75560;0.000;0.000;2024-03-08T12:36:19;3.53;;;2.33;;
85190;SDS011;75560;0.000;0.000;2024-03-08T12:38:48;3.17;;;2.47;;
85190;SDS011;75560;0.000;0.000;2024-03-08T12:41:17;3.72;;;2.80;;
85190;SDS011;75560;0.000;0.000;2024-03-08T12:43:44;3.70;;;2.40;;
85190;SDS011;75560;0.000;0.000;2024-03-08T12:46:20;2.95;;;2.60;;
85190;SDS011;75560;0.000;0.000;2024-03-08T12:48:46;3.63;;;2.60;;
85190;SDS011;75560;0.000;0.000;2024-03-08T12:51:13;4.35;;;3.00;;
85190;SDS011;75560;0.000;0.000;2024-03-08T12:53:40;3.65;;;2.58;;
85190;SDS011;75560;0.000;0.000;2024-03-08T12:56:10;3.25;;;2.30;;
85190;SDS011;75560;0.000;0.000;2024-03-08T12:58:36;2.67;;;2.38;;
85190;SDS011;75560;0.000;0.000;2024-03-08T13:01:05;3.75;;;2.60;;
85190;SDS011;75560;0.000;0.000;2024-03-08T13:03:32;3.35;;;2.40;;
85190;SDS011;75560;0.000;0.000;2024-03-08T13:06:00;3.95;;;2.75;;
85190;SDS011;75560;0.000;0.000;2024-03-08T13:08:27;3.28;;;2.70;;
85190;SDS011;75560;0.000;0.000;2024-03-08T13:10:54;4.10;;;2.75;;
85190;SDS011;75560;0.000;0.000;2024-03-08T13:13:20;4.65;;;2.50;;
85190;SDS011;75560;0.000;0.000;2024-03-08T13:15:45;3.33;;;2.63;;
85190;SDS011;75560;0.000;0.000;2024-03-08T13:18:11;5.78;;;2.80;;
85190;SDS011;75560;0.000;0.000;2024-03-08T13:20:37;2.72;;;2.40;;
85190;SDS011;75560;0.000;0.000;2024-03-08T13:23:03;4.13;;;2.45;;
85190;SDS011;75560;0.000;0.000;2024-03-08T13:25:30;3.95;;;2.70;;
85190;SDS011;75560;0.000;0.000;2024-03-08T13:27:56;4.78;;;2.58;;
85190;SDS011;75560;0.000;0.000;2024-03-08T13:30:24;3.30;;;2.30;;
85190;SDS011;75560;0.000;0.000;2024-03-08T13:32:51;3.08;;;2.05;;
85190;SDS011;75560;0.000;0.000;2024-03-08T13:35:20;3.10;;;2.50;;
85190;SDS011;75560;0.000;0.000;2024-03-08T13:37:53;4.15;;;2.40;;
85190;SDS011;75560;0.000;0.000;2024-03-08T13:40:18;3.33;;;2.40;;
85190;SDS011;75560;0.000;0.000;2024-03-08T13:42:45;4.78;;;3.13;;
85190;SDS011;75560;0.000;0.000;2024-03-08T13:45:11;5.75;;;2.80;;
85190;SDS011;75560;0.000;0.000;2024-03-08T13:47:38;4.85;;;2.88;;
85190;SDS011;75560;0.000;0.000;2024-03-08T13:50:08;6.20;;;2.70;;
85190;SDS011;75560;0.000;0.000;2024-03-08T13:52:37;5.72;;;2.90;;
85190;SDS011;75560;0.000;0.000;2024-03-08T13:55:06;4.32;;;2.60;;
85190;SDS011;75560;0.000;0.000;2024-03-08T13:57:33;7.30;;;3.25;;
85190;SDS011;75560;0.000;0.000;2024-03-08T13:59:59;4.15;;;2.80;;
85190;SDS011;75560;0.000;0.000;2024-03-08T14:02:24;6.10;;;2.95;;
85190;SDS011;75560;0.000;0.000;2024-03-08T14:04:53;4.85;;;2.70;;
85190;SDS011;75560;0.000;0.000;2024-03-08T14:07:20;4.68;;;2.97;;
85190;SDS011;75560;0.000;0.000;2024-03-08T14:09:46;4.63;;;2.88;;
85190;SDS011;75560;0.000;0.000;2024-03-08T14:12:11;3.97;;;2.80;;
85190;SDS011;75560;0.000;0.000;2024-03-08T14:14:38;5.47;;;2.90;;
85190;SDS011;75560;0.000;0.000;2024-03-08T14:17:05;4.25;;;3.08;;
85190;SDS011;75560;0.000;0.000;2024-03-08T14:19:34;4.90;;;2.90;;
85190;SDS011;75560;0.000;0.000;2024-03-08T14:22:00;3.10;;;2.60;;
85190;SDS011;75560;0.000;0.000;2024-03-08T14:24:29;4.80;;;2.45;;
85190;SDS011;75560;0.000;0.000;2024-03-08T14:26:55;6.03;;;3.30;;
85190;SDS011;75560;0.000;0.000;2024-03-08T14:29:20;4.60;;;2.83;;
85190;SDS011;75560;0.000;0.000;2024-03-08T14:31:46;5.22;;;2.97;;
85190;SDS011;75560;0.000;0.000;2024-03-08T14:34:13;5.07;;;3.20;;
85190;SDS011;75560;0.000;0.000;2024-03-08T14:36:39;3.60;;;2.60;;
85190;SDS011;75560;0.000;0.000;2024-03-08T14:39:05;4.22;;;3.10;;
85190;SDS011;75560;0.000;0.000;2024-03-08T14:41:32;4.47;;;2.50;;
85190;SDS011;75560;0.000;0.000;2024-03-08T14:43:58;4.20;;;2.75;;
85190;SDS011;75560;0.000;0.000;2024-03-08T14:46:24;7.40;;;3.05;;
85190;SDS011;75560;0.000;0.000;2024-03-08T14:48:52;5.63;;;2.83;;
85190;SDS011;75560;0.000;0.000;2024-03-08T14:51:20;5.80;;;2.90;;
85190;SDS011;75560;0.000;0.000;2024-03-08T14:53:47;4.60;;;2.83;;
85190;SDS011;75560;0.000;0.000;2024-03-08T14:56:14;4.05;;;2.58;;
85190;SDS011;75560;0.000;0.000;2024-03-08T14:58:44;5.35;;;2.60;;
85190;SDS011;75560;0.000;0.000;2024-03-08T15:01:14;3.90;;;2.60;;
85190;SDS011;75560;0.000;0.000;2024-03-08T15:03:40;4.75;;;2.65;;
85190;SDS011;75560;0.000;0.000;2024-03-08T15:06:09;4.50;;;2.60;;
85190;SDS011;75560;0.000;0.000;2024-03-08T15:08:38;3.75;;;2.50;;